createdAt,value
2022-08-08T00:02:29.972Z,4.72
2022-08-08T00:04:53.101Z,4.20
2022-08-08T00:07:30.490Z,4.78
2022-08-08T00:10:06.210Z,4.43
2022-08-08T00:12:48.351Z,4.03
2022-08-08T00:15:56.511Z,4.78
2022-08-08T00:18:22.097Z,4.28
2022-08-08T00:20:53.464Z,4.47
2022-08-08T00:23:28.543Z,4.65
2022-08-08T00:26:13.882Z,4.57
2022-08-08T00:28:54.351Z,4.88
2022-08-08T00:32:29.069Z,5.80
2022-08-08T00:34:51.928Z,5.35
2022-08-08T00:37:47.692Z,4.78
2022-08-08T00:41:07.807Z,4.63
2022-08-08T00:44:21.565Z,4.93
2022-08-08T00:47:22.971Z,5.18
2022-08-08T00:50:30.855Z,5.20
2022-08-08T00:53:06.987Z,5.00
2022-08-08T00:56:17.567Z,4.97
2022-08-08T00:59:43.234Z,5.68
2022-08-08T01:03:57.440Z,5.82
2022-08-08T01:06:28.814Z,5.45
2022-08-08T01:09:35.641Z,5.25
2022-08-08T01:12:34.084Z,4.88
2022-08-08T01:15:47.240Z,5.78
2022-08-08T01:18:53.544Z,5.53
2022-08-08T01:22:13.024Z,5.53
2022-08-08T01:25:14.431Z,5.43
2022-08-08T01:28:28.185Z,5.45
2022-08-08T01:32:13.535Z,5.53
2022-08-08T01:34:50.142Z,5.22
2022-08-08T01:37:57.376Z,5.90
2022-08-08T01:40:41.964Z,5.78
2022-08-08T01:43:38.418Z,5.75
2022-08-08T01:46:28.423Z,5.03
2022-08-08T01:49:03.427Z,5.07
2022-08-08T01:52:51.353Z,4.68
2022-08-08T01:55:46.330Z,5.10
2022-08-08T01:58:11.079Z,5.30
2022-08-08T02:00:41.441Z,5.25
2022-08-08T02:03:56.747Z,5.78
2022-08-08T02:06:32.685Z,4.82
2022-08-08T02:09:18.276Z,4.47
2022-08-08T02:11:58.959Z,5.32
2022-08-08T02:14:56.063Z,4.53
2022-08-08T02:17:42.727Z,5.00
2022-08-08T02:21:01.821Z,4.88
2022-08-08T02:28:34.983Z,5.18
2022-08-08T02:31:43.253Z,4.20
2022-08-08T02:34:09.026Z,5.32
2022-08-08T02:36:56.969Z,4.03
2022-08-08T02:39:59.677Z,4.35
2022-08-08T02:44:42.873Z,4.28
2022-08-08T02:46:30.931Z,4.97
2022-08-08T02:49:50.729Z,4.68
2022-08-08T02:52:38.586Z,4.65
2022-08-08T02:55:39.732Z,4.40
2022-08-08T02:58:47.600Z,4.72
2022-08-08T03:01:47.538Z,4.68
2022-08-08T03:05:02.330Z,4.35
2022-08-08T03:07:59.409Z,4.82
2022-08-08T03:11:48.113Z,4.55
2022-08-08T03:16:00.664Z,4.60
2022-08-08T03:17:25.797Z,5.43
2022-08-08T03:20:08.284Z,4.97
2022-08-08T03:22:47.678Z,4.93
2022-08-08T03:25:18.593Z,4.68
2022-08-08T03:27:57.723Z,4.68
2022-08-08T03:30:29.733Z,4.93
2022-08-08T03:33:58.138Z,5.15
2022-08-08T03:36:10.782Z,5.13
2022-08-08T03:38:58.464Z,5.18
2022-08-08T03:42:13.307Z,5.00
2022-08-08T03:44:25.376Z,5.13
2022-08-08T03:46:55.051Z,4.72
2022-08-08T03:50:00.105Z,5.15
2022-08-08T03:52:17.307Z,5.13
2022-08-08T03:55:01.565Z,5.57
2022-08-08T03:58:34.128Z,6.18
2022-08-08T04:00:30.932Z,5.78
2022-08-08T04:03:11.067Z,5.68
2022-08-08T04:05:49.818Z,5.55
2022-08-08T04:08:32.534Z,4.82
2022-08-08T04:11:11.334Z,6.25
2022-08-08T04:14:03.705Z,5.07
2022-08-08T04:16:40.236Z,5.10
2022-08-08T04:19:25.228Z,4.90
2022-08-08T04:24:37.227Z,4.57
2022-08-08T04:27:42.829Z,5.20
2022-08-08T04:30:17.687Z,4.63
2022-08-08T04:32:50.569Z,5.05
2022-08-08T04:35:23.204Z,4.90
2022-08-08T04:37:54.187Z,5.63
2022-08-08T04:40:27.524Z,5.22
2022-08-08T04:43:01.025Z,4.95
2022-08-08T04:45:51.842Z,4.20
2022-08-08T04:48:23.620Z,5.13
2022-08-08T04:50:52.746Z,5.78
2022-08-08T04:54:37.138Z,5.20
2022-08-08T04:56:18.085Z,5.50
2022-08-08T04:58:48.326Z,5.40
2022-08-08T05:01:19.469Z,5.32
2022-08-08T05:04:08.290Z,4.55
2022-08-08T05:06:43.821Z,4.93
2022-08-08T05:09:15.862Z,5.07
2022-08-08T05:11:47.612Z,6.20
2022-08-08T05:14:29.251Z,4.55
2022-08-08T05:17:08.769Z,5.13
2022-08-08T05:20:10.731Z,4.85
2022-08-08T05:22:37.643Z,4.93
2022-08-08T05:25:07.807Z,4.97
2022-08-08T05:27:41.765Z,4.17
2022-08-08T05:30:16.661Z,4.55
2022-08-08T05:32:57.314Z,4.38
2022-08-08T05:35:27.676Z,4.68
2022-08-08T05:38:02.789Z,4.22
2022-08-08T05:40:48.893Z,4.68
2022-08-08T05:43:39.622Z,3.72
2022-08-08T05:46:17.672Z,4.03
2022-08-08T05:48:52.332Z,4.53
2022-08-08T05:51:26.819Z,4.20
2022-08-08T05:54:42.678Z,3.47
2022-08-08T05:56:48.393Z,3.13
2022-08-08T05:59:59.886Z,3.38
2022-08-08T06:02:44.078Z,3.08
2022-08-08T06:08:09.530Z,2.50
2022-08-08T06:10:42.218Z,3.63
2022-08-08T06:13:13.733Z,2.63
2022-08-08T06:15:50.688Z,2.38
2022-08-08T06:18:36.546Z,3.00
2022-08-08T06:21:28.638Z,1.98
2022-08-08T06:24:02.085Z,2.55
2022-08-08T06:26:45.560Z,2.47
2022-08-08T06:30:00.166Z,1.70
2022-08-08T06:32:18.450Z,1.90
2022-08-08T06:36:01.053Z,1.60
2022-08-08T06:37:56.005Z,1.77
2022-08-08T06:40:36.821Z,1.70
2022-08-08T06:43:11.543Z,1.98
2022-08-08T06:45:52.097Z,2.20
2022-08-08T06:48:22.685Z,2.00
2022-08-08T06:50:57.185Z,2.22
2022-08-08T06:56:10.011Z,3.05
2022-08-08T06:58:40.084Z,1.67
2022-08-08T07:02:17.518Z,1.88
2022-08-08T07:04:37.386Z,2.45
2022-08-08T07:07:07.107Z,1.67
2022-08-08T07:09:56.374Z,1.85
2022-08-08T07:12:35.835Z,1.90
2022-08-08T07:15:09.147Z,1.42
2022-08-08T07:18:34.595Z,1.40
2022-08-08T07:20:50.398Z,1.10
2022-08-08T07:23:25.433Z,1.52
2022-08-08T07:26:01.640Z,1.38
2022-08-08T07:28:32.778Z,1.40
2022-08-08T07:31:06.948Z,1.40
2022-08-08T07:33:59.227Z,1.40
2022-08-08T07:36:30.387Z,1.85
2022-08-08T07:39:02.085Z,1.20
2022-08-08T07:42:03.715Z,1.30
2022-08-08T07:44:37.688Z,1.40
2022-08-08T07:47:10.981Z,1.40
2022-08-08T07:49:41.078Z,1.60
2022-08-08T07:52:23.189Z,1.58
2022-08-08T07:55:02.153Z,1.42
2022-08-08T07:57:42.073Z,1.63
2022-08-08T08:00:18.819Z,1.20
2022-08-08T08:02:59.511Z,1.38
2022-08-08T08:05:33.691Z,1.50
2022-08-08T08:08:07.158Z,1.27
2022-08-08T08:10:40.274Z,1.35
2022-08-08T08:13:25.231Z,1.15
2022-08-08T08:16:01.929Z,1.42
2022-08-08T08:18:52.119Z,1.30
2022-08-08T08:21:44.038Z,1.42
2022-08-08T08:24:30.961Z,1.23
2022-08-08T08:27:04.660Z,1.00
2022-08-08T08:29:37.988Z,1.40
2022-08-08T08:32:08.855Z,1.20
2022-08-08T08:34:43.490Z,1.25
2022-08-08T08:40:01.587Z,1.48
2022-08-08T08:42:36.832Z,1.25
2022-08-08T08:45:22.841Z,1.10
2022-08-08T08:47:58.629Z,1.63
2022-08-08T08:50:35.506Z,1.58
2022-08-08T08:53:56.785Z,1.52
2022-08-08T08:56:12.326Z,1.03
2022-08-08T08:58:50.530Z,1.90
2022-08-08T09:01:43.870Z,1.60
2022-08-08T09:04:31.233Z,0.95
2022-08-08T09:07:12.019Z,0.93
2022-08-08T09:09:48.190Z,1.42
2022-08-08T09:12:28.637Z,1.38
2022-08-08T09:15:01.134Z,1.50
2022-08-08T09:17:41.501Z,1.67
2022-08-08T09:21:57.613Z,1.38
2022-08-08T09:23:11.534Z,1.10
2022-08-08T09:25:58.391Z,1.10
2022-08-08T09:28:38.281Z,1.50
2022-08-08T09:31:16.480Z,1.35
2022-08-08T09:34:15.275Z,1.35
2022-08-08T09:37:10.184Z,3.03
2022-08-08T09:39:43.148Z,1.73
2022-08-08T09:42:22.159Z,1.25
2022-08-08T09:45:03.830Z,1.23
2022-08-08T09:48:11.384Z,1.35
2022-08-08T09:50:28.063Z,1.10
2022-08-08T09:53:02.192Z,1.20
2022-08-08T09:56:04.755Z,0.90
2022-08-08T09:58:40.752Z,1.05
2022-08-08T10:01:15.324Z,0.70
2022-08-08T10:04:04.836Z,0.80
2022-08-08T10:06:35.606Z,1.25
2022-08-08T10:09:04.981Z,1.33
2022-08-08T10:12:26.406Z,1.27
2022-08-08T10:14:38.304Z,1.38
2022-08-08T10:17:56.482Z,0.70
2022-08-08T10:20:04.235Z,0.88
2022-08-08T10:22:35.861Z,0.90
2022-08-08T10:25:15.474Z,0.90
2022-08-08T10:27:45.123Z,1.55
2022-08-08T10:30:16.299Z,0.90
2022-08-08T10:33:03.437Z,1.00
2022-08-08T10:36:08.126Z,1.00
2022-08-08T10:38:24.777Z,0.70
2022-08-08T10:40:54.028Z,1.23
2022-08-08T10:43:23.343Z,1.23
2022-08-08T10:48:38.815Z,0.88
2022-08-08T10:51:24.140Z,1.15
2022-08-08T10:53:57.348Z,1.40
2022-08-08T10:56:34.432Z,0.80
2022-08-08T10:59:08.117Z,1.00
2022-08-08T11:01:38.963Z,1.00
2022-08-08T11:04:10.648Z,1.08
2022-08-08T11:06:47.528Z,0.90
2022-08-08T11:09:21.429Z,0.80
2022-08-08T11:12:04.505Z,1.10
2022-08-08T11:14:50.528Z,1.23
2022-08-08T11:17:59.993Z,0.98
2022-08-08T11:20:14.195Z,0.50
2022-08-08T11:22:53.100Z,0.95
2022-08-08T11:25:52.875Z,0.85
2022-08-08T11:28:14.907Z,1.10
2022-08-08T11:30:50.563Z,1.45
2022-08-08T11:33:52.018Z,0.70
2022-08-08T11:36:15.513Z,1.00
2022-08-08T11:38:54.750Z,1.10
2022-08-08T11:41:27.675Z,1.83
2022-08-08T11:44:01.614Z,0.80
2022-08-08T11:46:32.718Z,0.95
2022-08-08T11:49:04.759Z,5.05
2022-08-08T11:51:40.204Z,1.50
2022-08-08T11:54:32.476Z,0.90
2022-08-08T11:57:14.317Z,0.90
2022-08-08T11:59:58.525Z,1.20
2022-08-08T12:02:48.506Z,1.00
2022-08-08T12:05:22.677Z,1.00
2022-08-08T12:07:56.040Z,1.25
2022-08-08T12:10:28.613Z,1.27
2022-08-08T12:13:04.739Z,1.10
2022-08-08T12:15:42.204Z,0.73
2022-08-08T12:18:21.545Z,1.25
2022-08-08T12:20:54.199Z,0.88
2022-08-08T12:23:43.817Z,0.68
2022-08-08T12:26:28.409Z,1.08
2022-08-08T12:29:25.890Z,1.00
2022-08-08T12:32:13.411Z,0.88
2022-08-08T12:34:48.504Z,1.65
2022-08-08T12:37:21.780Z,0.80
2022-08-08T12:40:00.495Z,4.68
2022-08-08T12:42:33.609Z,1.58
2022-08-08T12:45:20.004Z,1.33
2022-08-08T12:48:09.623Z,1.13
2022-08-08T12:50:48.120Z,1.67
2022-08-08T12:53:21.824Z,1.45
2022-08-08T12:56:08.533Z,1.10
2022-08-08T12:58:52.187Z,1.17
2022-08-08T13:01:34.885Z,1.00
2022-08-08T13:04:19.117Z,1.33
2022-08-08T13:07:00.601Z,1.52
2022-08-08T13:09:57.582Z,1.10
2022-08-08T13:12:29.597Z,1.30
2022-08-08T13:15:03.684Z,1.30
2022-08-08T13:18:08.559Z,1.38
2022-08-08T13:20:25.935Z,1.90
2022-08-08T13:25:50.456Z,1.27
2022-08-08T13:28:32.455Z,0.90
2022-08-08T13:31:04.506Z,1.27
2022-08-08T13:33:42.328Z,0.90
2022-08-08T13:36:12.558Z,0.98
2022-08-08T13:38:42.896Z,1.45
2022-08-08T13:41:16.095Z,2.67
2022-08-08T13:43:47.248Z,1.90
2022-08-08T13:46:27.392Z,1.67
2022-08-08T13:49:12.139Z,1.60
2022-08-08T13:51:57.340Z,1.30
2022-08-08T13:54:29.271Z,1.90
2022-08-08T13:57:04.895Z,1.85
2022-08-08T13:59:44.370Z,2.28
2022-08-08T14:02:21.535Z,1.58
2022-08-08T14:04:57.160Z,1.17
2022-08-08T14:07:29.949Z,1.65
2022-08-08T14:10:17.023Z,1.20
2022-08-08T14:12:47.166Z,1.50
2022-08-08T14:15:31.566Z,1.38
2022-08-08T14:18:34.343Z,1.40
2022-08-08T14:21:03.863Z,1.33
2022-08-08T14:24:04.456Z,1.50
2022-08-08T14:26:33.656Z,1.23
2022-08-08T14:29:06.211Z,1.52
2022-08-08T14:32:09.885Z,1.02
2022-08-08T14:34:39.806Z,1.17
2022-08-08T14:37:12.508Z,1.13
2022-08-08T14:39:48.423Z,1.05
2022-08-08T14:42:27.483Z,1.08
2022-08-08T14:45:02.109Z,0.90
2022-08-08T14:47:36.173Z,0.90
2022-08-08T14:50:15.091Z,1.35
2022-08-08T14:52:57.189Z,1.52
2022-08-08T14:55:41.234Z,1.30
2022-08-08T14:58:16.663Z,1.30
2022-08-08T15:00:50.093Z,1.08
2022-08-08T15:03:19.458Z,0.90
2022-08-08T15:05:53.822Z,0.82
2022-08-08T15:08:33.469Z,1.00
2022-08-08T15:11:04.832Z,1.10
2022-08-08T15:13:41.066Z,1.33
2022-08-08T15:16:24.254Z,1.17
2022-08-08T15:18:53.047Z,1.00
2022-08-08T15:21:30.046Z,1.50
2022-08-08T15:23:59.245Z,1.38
2022-08-08T15:26:29.421Z,1.20
2022-08-08T15:28:59.153Z,1.10
2022-08-08T15:32:03.492Z,1.48
2022-08-08T15:34:18.455Z,1.52
2022-08-08T15:37:02.178Z,0.95
2022-08-08T15:39:38.473Z,1.40
2022-08-08T15:42:13.203Z,1.02
2022-08-08T15:44:47.256Z,1.00
2022-08-08T15:47:19.169Z,1.17
2022-08-08T15:49:48.660Z,1.23
2022-08-08T15:52:22.100Z,1.10
2022-08-08T15:54:52.240Z,0.95
2022-08-08T15:57:23.189Z,0.93
2022-08-08T16:00:06.113Z,0.95
2022-08-08T16:02:43.843Z,0.93
2022-08-08T16:05:13.940Z,0.80
2022-08-08T16:13:08.884Z,1.20
2022-08-08T16:13:34.048Z,1.42
2022-08-08T16:16:09.338Z,1.15
2022-08-08T16:18:42.570Z,1.08
2022-08-08T16:23:57.226Z,1.13
2022-08-08T16:26:34.633Z,0.90
2022-08-08T16:29:07.714Z,1.30
2022-08-08T16:31:37.752Z,1.15
2022-08-08T16:34:06.961Z,0.98
2022-08-08T16:36:38.139Z,0.93
2022-08-08T16:39:27.981Z,1.52
2022-08-08T16:42:00.990Z,1.20
2022-08-08T16:44:34.376Z,1.13
2022-08-08T16:47:39.927Z,1.58
2022-08-08T16:50:13.937Z,0.90
2022-08-08T16:55:19.494Z,1.40
2022-08-08T16:55:55.870Z,1.42
2022-08-08T17:01:05.900Z,1.30
2022-08-08T17:03:58.957Z,1.77
2022-08-08T17:06:36.032Z,1.55
2022-08-08T17:09:07.187Z,1.20
2022-08-08T17:11:48.730Z,1.27
2022-08-08T17:14:26.887Z,1.88
2022-08-08T17:16:58.501Z,1.92
2022-08-08T17:19:29.129Z,1.50
2022-08-08T17:22:01.062Z,1.70
2022-08-08T17:24:31.880Z,1.45
2022-08-08T17:27:03.328Z,1.10
2022-08-08T17:29:36.510Z,2.00
2022-08-08T17:32:12.306Z,1.20
2022-08-08T17:34:54.663Z,1.42
2022-08-08T17:37:32.809Z,1.10
2022-08-08T17:40:10.838Z,7.82
2022-08-08T17:42:46.792Z,1.85
2022-08-08T17:45:23.434Z,1.63
2022-08-08T17:47:54.810Z,1.70
2022-08-08T17:50:24.950Z,1.60
2022-08-08T17:52:53.739Z,1.88
2022-08-08T17:56:07.047Z,2.05
2022-08-08T17:58:15.319Z,1.90
2022-08-08T18:00:47.480Z,2.08
2022-08-08T18:03:26.841Z,1.95
2022-08-08T18:05:55.846Z,1.98
2022-08-08T18:08:41.111Z,1.60
2022-08-08T18:11:16.581Z,1.95
2022-08-08T18:13:47.874Z,1.50
2022-08-08T18:16:23.122Z,4.45
2022-08-08T18:18:56.558Z,2.10
2022-08-08T18:21:59.050Z,2.53
2022-08-08T18:24:19.436Z,2.78
2022-08-08T18:26:54.325Z,2.22
2022-08-08T18:29:30.142Z,1.33
2022-08-08T18:32:04.608Z,2.10
2022-08-08T18:34:34.276Z,1.75
2022-08-08T18:37:08.153Z,4.07
2022-08-08T18:39:41.121Z,2.03
2022-08-08T18:42:16.336Z,2.83
2022-08-08T18:44:55.151Z,2.40
2022-08-08T18:47:25.984Z,3.70
2022-08-08T18:49:57.612Z,2.50
2022-08-08T18:52:28.040Z,2.28
2022-08-08T18:55:11.046Z,3.10
2022-08-08T18:57:44.562Z,2.20
2022-08-08T19:00:20.131Z,3.20
2022-08-08T19:02:56.093Z,2.45
2022-08-08T19:05:30.566Z,2.97
2022-08-08T19:08:03.031Z,5.10
2022-08-08T19:10:35.202Z,2.28
2022-08-08T19:13:04.412Z,2.20
2022-08-08T19:15:41.378Z,2.40
2022-08-08T19:18:32.460Z,2.20
2022-08-08T19:21:00.912Z,2.38
2022-08-08T19:23:29.931Z,1.95
2022-08-08T19:26:29.246Z,2.67
2022-08-08T19:28:53.008Z,2.10
2022-08-08T19:31:23.170Z,2.47
2022-08-08T19:34:15.228Z,3.08
2022-08-08T19:36:49.583Z,2.17
2022-08-08T19:39:19.462Z,2.10
2022-08-08T19:41:52.203Z,2.10
2022-08-08T19:44:42.643Z,2.13
2022-08-08T19:47:12.481Z,2.30
2022-08-08T19:49:43.177Z,1.75
2022-08-08T19:52:13.289Z,1.88
2022-08-08T19:54:43.314Z,1.70
2022-08-08T19:57:14.436Z,2.17
2022-08-08T19:59:53.832Z,2.33
2022-08-08T20:02:26.632Z,2.33
2022-08-08T20:04:56.929Z,2.38
2022-08-08T20:08:39.458Z,2.40
2022-08-08T20:10:15.502Z,3.30
2022-08-08T20:13:14.763Z,2.40
2022-08-08T20:16:00.320Z,2.10
2022-08-08T20:18:29.500Z,2.53
2022-08-08T20:21:06.280Z,2.60
2022-08-08T20:23:34.975Z,2.40
2022-08-08T20:26:03.843Z,2.85
2022-08-08T20:28:33.164Z,1.85
2022-08-08T20:31:02.135Z,1.38
2022-08-08T20:34:27.958Z,1.85
2022-08-08T20:36:22.318Z,2.00
2022-08-08T20:38:51.439Z,1.77
2022-08-08T20:41:20.533Z,2.00
2022-08-08T20:43:50.146Z,1.80
2022-08-08T20:46:21.146Z,2.28
2022-08-08T20:48:58.173Z,1.77
2022-08-08T20:51:32.411Z,2.58
2022-08-08T20:54:14.069Z,2.17
2022-08-08T20:57:11.748Z,2.05
2022-08-08T20:59:41.065Z,2.17
2022-08-08T21:02:12.705Z,2.15
2022-08-08T21:04:47.714Z,2.65
2022-08-08T21:07:47.482Z,2.10
2022-08-08T21:10:12.775Z,2.55
2022-08-08T21:12:46.123Z,2.17
2022-08-08T21:15:16.487Z,2.08
2022-08-08T21:18:04.449Z,1.88
2022-08-08T21:20:35.003Z,2.35
2022-08-08T21:23:04.028Z,1.65
2022-08-08T21:25:37.467Z,2.05
2022-08-08T21:30:52.145Z,2.45
2022-08-08T21:33:21.634Z,2.35
2022-08-08T21:36:16.837Z,1.80
2022-08-08T21:38:40.435Z,2.00
2022-08-08T21:41:09.446Z,2.28
2022-08-08T21:43:57.650Z,2.00
2022-08-08T21:48:03.905Z,2.20
2022-08-08T21:49:16.658Z,2.20
2022-08-08T21:54:33.840Z,2.22
2022-08-08T21:57:24.479Z,2.33
2022-08-08T22:00:03.764Z,3.80
2022-08-08T22:02:42.199Z,2.10
2022-08-08T22:05:14.755Z,2.15
2022-08-08T22:07:48.301Z,1.90
2022-08-08T22:10:32.002Z,2.42
2022-08-08T22:13:17.257Z,2.05
2022-08-08T22:15:58.882Z,1.77
2022-08-08T22:18:30.768Z,2.10
2022-08-08T22:21:10.547Z,2.08
2022-08-08T22:23:51.387Z,2.47
2022-08-08T22:26:29.484Z,2.53
2022-08-08T22:29:14.024Z,2.10
2022-08-08T22:32:01.634Z,1.70
2022-08-08T22:34:32.714Z,1.60
2022-08-08T22:37:01.680Z,2.58
2022-08-08T22:39:39.513Z,2.08
2022-08-08T22:42:27.282Z,2.33
2022-08-08T22:44:59.955Z,2.40
2022-08-08T22:47:37.531Z,1.97
2022-08-08T22:50:25.040Z,1.95
2022-08-08T22:54:27.559Z,2.20
2022-08-08T22:55:59.555Z,2.25
2022-08-08T22:58:32.757Z,1.83
2022-08-08T23:02:01.212Z,1.60
2022-08-08T23:03:54.444Z,2.03
2022-08-08T23:06:24.315Z,2.08
2022-08-08T23:08:55.032Z,2.00
2022-08-08T23:11:57.994Z,1.77
2022-08-08T23:14:18.263Z,2.67
2022-08-08T23:16:54.367Z,1.80
2022-08-08T23:19:27.437Z,1.90
2022-08-08T23:22:01.924Z,2.25
2022-08-08T23:24:36.630Z,2.00
2022-08-08T23:27:07.511Z,1.90
2022-08-08T23:29:36.719Z,2.85
2022-08-08T23:32:07.009Z,2.43
2022-08-08T23:34:39.474Z,2.30
2022-08-08T23:37:18.487Z,2.42
2022-08-08T23:39:55.394Z,2.03
2022-08-08T23:42:28.067Z,3.22
2022-08-08T23:44:56.783Z,2.85
2022-08-08T23:49:05.808Z,2.38
2022-08-08T23:50:29.783Z,2.15
2022-08-08T23:53:05.141Z,2.38
2022-08-08T23:55:42.216Z,1.88
2022-08-08T23:58:32.221Z,2.33
